Nordic Philip — 5BZH2 — position and weather

sailwx.info

Track history (hours):
 
Tides and Currents Weather Stations Pressure Air Temp Water Temp Dewpoint Dewpoint Depression Visibility Wind Speed Wind Dir Waves Ship Positions

Nordic Philip

Last reported at 2014-Oct-25 08:33 UTC. Time now 2014-Oct-25 09:27 UTC.
Position N 53°41' E 009°30'.

Length 151 m; draft 8.5 m.

Type: Ship (hazmat cat A). MMSI: 212018000.

Date/timePositionNaut miles runAvg speedWind from/ knotsBaromVisibWave heightAir tempDewpointWater temp
2014-Oct-25 08:33N 53°41' E 009°30'1313.1
2014-Oct-25 07:33N 53°52' E 009°17'1110.9
2014-Oct-25 06:33N 53°51' E 008°59'1010.3
2014-Oct-25 05:33N 53°53' E 008°42'1111.4
2014-Oct-25 04:33N 53°59' E 008°25'1313.1
2014-Oct-25 03:33N 53°58' E 008°03'8 7.5
2014-Oct-25 02:33N 53°51' E 008°03'1717.5
2014-Oct-25 01:33N 53°39' E 008°25'5 5.2
2014-Oct-25 00:33N 53°35' E 008°32'0 0.0
2014-Oct-24 23:33N 53°35' E 008°32'0 0.0
2014-Oct-24 22:33N 53°35' E 008°32'0 0.0
2014-Oct-24 21:33N 53°35' E 008°32'0 0.0
2014-Oct-24 20:33N 53°35' E 008°32'0 0.0
2014-Oct-24 19:33N 53°35' E 008°32'0 0.0
2014-Oct-24 18:33N 53°35' E 008°32'0 0.2
2014-Oct-24 17:30N 53°35' E 008°31'0 0.0
2014-Oct-24 16:30N 53°35' E 008°31'0 0.0
2014-Oct-24 15:33N 53°35' E 008°31'0 0.0
2014-Oct-24 14:33N 53°35' E 008°31'0 0.0
2014-Oct-24 13:33N 53°35' E 008°31'0 0.0
2014-Oct-24 12:33N 53°35' E 008°31'4 4.4
2014-Oct-24 11:34N 53°38' E 008°26'1615.9
2014-Oct-24 10:33N 53°49' E 008°06'11 5.3
2014-Oct-24 08:33N 53°60' E 008°04'1312.9
2014-Oct-24 07:33N 53°59' E 008°26'1514.6
2014-Oct-24 06:33N 53°51' E 008°46'1413.6
2014-Oct-24 05:33N 53°54' E 009°09'1 0.5
2014-Oct-24 04:33N 53°54' E 009°09'19 6.0
2014-Oct-24 01:23N 54°10' E 009°26'4 4.7
2014-Oct-24 00:26N 54°12' E 009°33'4 4.7
2014-Oct-23 23:29N 54°16' E 009°37'5 5.2
2014-Oct-23 22:33N 54°19' E 009°43'4 4.3
2014-Oct-23 21:33N 54°22' E 009°49'5 5.3
2014-Oct-23 20:33N 54°21' E 009°58'4 4.2
2014-Oct-23 19:33N 54°22' E 010°05'2 2.3
2014-Oct-23 18:33N 54°22' E 010°09'2 2.4
2014-Oct-23 17:33N 54°23' E 010°12'10 9.8
2014-Oct-23 16:33N 54°31' E 010°22'1715.1
2014-Oct-23 15:25N 54°35' E 010°51'1815.0
2014-Oct-23 14:15N 54°33' E 011°21'1216.6
2014-Oct-23 13:33N 54°28' E 011°39'1515.5
2014-Oct-23 12:33N 54°26' E 012°06'5714.0
2014-Oct-23 08:27N 54°46' E 013°39'1516.1
2014-Oct-23 07:33N 54°41' E 014°03'1615.6
2014-Oct-23 06:30N 54°39' E 014°31'1516.0
2014-Oct-23 05:33N 54°43' E 014°56'1615.7
2014-Oct-23 04:33N 54°49' E 015°22'  
2014-Oct-20 22:05N 55°21' E 018°27'1317.0
2014-Oct-20 21:20N 55°18' E 018°06'11617.0
2014-Oct-20 14:31N 54°37' E 014°57'4411.2
2014-Oct-20 10:34N 54°00' E 014°16'8 8.4
2014-Oct-20 09:33N 53°52' E 014°17'9 8.8
2014-Oct-20 08:33N 53°45' E 014°25'1110.6
2014-Oct-20 07:34N 53°36' E 014°35'8 8.3
2014-Oct-20 06:34N 53°28' E 014°36'2 0.1
2014-Oct-19 17:09N 53°26' E 014°35'0 0.0
2014-Oct-19 16:06N 53°26' E 014°35'0 0.0
2014-Oct-19 15:30N 53°26' E 014°35'0 0.0
2014-Oct-19 14:30N 53°26' E 014°35'0 0.0
2014-Oct-19 13:30N 53°26' E 014°35'0 0.0
2014-Oct-19 12:30N 53°26' E 014°35'0 0.0
2014-Oct-19 11:30N 53°26' E 014°35'0 0.0
2014-Oct-19 10:33N 53°26' E 014°35'0 0.0
2014-Oct-19 09:33N 53°26' E 014°35'1 1.1
2014-Oct-19 08:33N 53°27' E 014°36'6 6.2
2014-Oct-19 07:33N 53°33' E 014°37'9 9.2
2014-Oct-19 06:33N 53°41' E 014°30'1110.8
2014-Oct-19 05:33N 53°50' E 014°19'6 6.0
2014-Oct-19 04:33N 53°55' E 014°17'7210.2
2014-Oct-18 21:31N 54°43' E 012°45'1913.0
2014-Oct-18 20:03N 54°33' E 012°18'713.4
2014-Oct-18 19:33N 54°26' E 012°13'1212.3
2014-Oct-18 18:32N 54°24' E 011°52'3712.4
2014-Oct-18 15:31N 54°35' E 010°50'1313.1
2014-Oct-18 14:33N 54°32' E 010°29'1312.6
2014-Oct-18 13:33N 54°24' E 010°12'3 3.4
2014-Oct-18 12:34N 54°22' E 010°08'6 6.1
2014-Oct-18 11:34N 54°21' E 009°58'7 7.0
2014-Oct-18 10:33N 54°21' E 009°46'7 6.7
2014-Oct-18 09:34N 54°16' E 009°38'2 2.4
2014-Oct-18 08:33N 54°14' E 009°36'9 8.2
2014-Oct-18 07:30N 54°09' E 009°23'7 7.9
2014-Oct-18 06:34N 54°03' E 009°18'7 6.4
2014-Oct-18 05:30N 53°57' E 009°14'0 0.1
2014-Oct-18 04:29N 53°57' E 009°14'3 3.7
2014-Oct-18 03:33N 53°54' E 009°09'2 1.6
2014-Oct-18 02:33N 53°53' E 009°07'9 9.2
2014-Oct-18 01:34N 53°50' E 008°52'1110.8
2014-Oct-18 00:33N 53°57' E 008°38'1414.3
2014-Oct-17 23:33N 53°60' E 008°14'1313.6
2014-Oct-17 22:33N 53°54' E 007°53'1313.4
2014-Oct-17 21:33N 53°46' E 008°11'1615.7
2014-Oct-17 20:33N 53°35' E 008°31'0 0.1
2014-Oct-17 19:30N 53°36' E 008°31'0 0.0
2014-Oct-17 18:30N 53°36' E 008°31'0 0.0
2014-Oct-17 17:30N 53°36' E 008°31'0 0.0
2014-Oct-17 16:30N 53°36' E 008°31'0 0.0
2014-Oct-17 15:33N 53°36' E 008°31'0 0.0
2014-Oct-17 14:33N 53°36' E 008°31'0 0.0
2014-Oct-17 13:33N 53°36' E 008°31'0 0.0
2014-Oct-17 12:33N 53°36' E 008°31'1 0.8
2014-Oct-17 11:32N 53°35' E 008°32'0 0.0
2014-Oct-17 10:33N 53°35' E 008°32'0 0.0
2014-Oct-17 09:33N 53°35' E 008°32'0 0.0
2014-Oct-17 08:33N 53°35' E 008°32'0 0.0
2014-Oct-17 07:33N 53°35' E 008°32'0 0.0
2014-Oct-17 06:33N 53°35' E 008°32'0 0.0
2014-Oct-17 05:33N 53°35' E 008°32'0 0.0
2014-Oct-17 04:33N 53°35' E 008°32'0 0.0
2014-Oct-17 03:33N 53°35' E 008°32'0 0.0
2014-Oct-17 02:33N 53°35' E 008°32'0 0.3
2014-Oct-17 01:28N 53°35' E 008°32'0 0.1
2014-Oct-17 00:31N 53°35' E 008°32'0 0.0
2014-Oct-16 23:31N 53°35' E 008°32'0 0.0
2014-Oct-16 22:31N 53°35' E 008°32'0 0.0
2014-Oct-16 21:31N 53°35' E 008°32'0 0.0
2014-Oct-16 20:31N 53°35' E 008°32'0 0.0
2014-Oct-16 19:31N 53°35' E 008°32'0 0.0
2014-Oct-16 18:31N 53°35' E 008°32'3 3.3
2014-Oct-16 17:33N 53°37' E 008°28'1616.4
2014-Oct-16 16:33N 53°48' E 008°07'1010.4
2014-Oct-16 15:33N 53°57' E 007°59'1413.8
2014-Oct-16 14:33N 53°59' E 008°22'1413.8
2014-Oct-16 13:33N 53°53' E 008°42'1615.5
2014-Oct-16 12:34N 53°53' E 009°09'1414.1
2014-Oct-16 11:33N 53°44' E 009°27'1414.3
2014-Oct-16 10:34N 53°34' E 009°44'6 6.1
2014-Oct-16 09:33N 53°32' E 009°54'0 0.0
2014-Oct-16 08:33N 53°32' E 009°54'0 0.0
2014-Oct-16 07:33N 53°32' E 009°54'0 0.0
2014-Oct-16 06:30N 53°32' E 009°54'0 0.0
2014-Oct-16 05:33N 53°32' E 009°54'0 0.3
2014-Oct-16 04:34N 53°32' E 009°54'2 1.7
2014-Oct-16 03:34N 53°32' E 009°57'0 0.0
2014-Oct-16 02:31N 53°32' E 009°57'0 0.0
2014-Oct-16 01:34N 53°32' E 009°57'0 0.0
2014-Oct-16 00:33N 53°32' E 009°57'0 0.0
2014-Oct-15 23:31N 53°32' E 009°57'0 0.0
2014-Oct-15 22:34N 53°32' E 009°57'0 0.0
2014-Oct-15 21:34N 53°32' E 009°57'0 0.0
2014-Oct-15 20:34N 53°32' E 009°57'0 0.0
2014-Oct-15 19:33N 53°32' E 009°57'0 0.0
2014-Oct-15 18:34N 53°32' E 009°57'1 1.4
2014-Oct-15 17:32N 53°32' E 009°55'0 0.0
2014-Oct-15 16:29N 53°32' E 009°55'0 0.0
2014-Oct-15 15:29N 53°32' E 009°55'0 0.0
2014-Oct-15 14:32N 53°32' E 009°55'0 0.0
2014-Oct-15 13:32N 53°32' E 009°55'1 0.8
2014-Oct-15 12:34N 53°33' E 009°53'3 2.9
2014-Oct-15 11:33N 53°30' E 009°56'0 0.0
2014-Oct-15 10:33N 53°30' E 009°56'0 0.0
2014-Oct-15 09:33N 53°30' E 009°56'0 0.0
2014-Oct-15 08:33N 53°30' E 009°56'  
Track history (hours):
 
Tides and Currents Weather Stations Pressure Air Temp Water Temp Dewpoint Dewpoint Depression Visibility Wind Speed Wind Dir Waves Ship Positions

Nordic Philip

Last reported at 2014-Oct-25 08:33 UTC. Time now 2014-Oct-25 09:27 UTC.
Position N 53°41' E 009°30'.

Length 151 m; draft 8.5 m.

Type: Ship (hazmat cat A). MMSI: 212018000.

Date/timePositionNaut miles runAvg speedWind from/ knotsBaromVisibWave heightAir tempDewpointWater temp
2014-Oct-25 08:33N 53°41' E 009°30'1313.1
2014-Oct-25 07:33N 53°52' E 009°17'1110.9
2014-Oct-25 06:33N 53°51' E 008°59'1010.3
2014-Oct-25 05:33N 53°53' E 008°42'1111.4
2014-Oct-25 04:33N 53°59' E 008°25'1313.1
2014-Oct-25 03:33N 53°58' E 008°03'8 7.5
2014-Oct-25 02:33N 53°51' E 008°03'1717.5
2014-Oct-25 01:33N 53°39' E 008°25'5 5.2
2014-Oct-25 00:33N 53°35' E 008°32'0 0.0
2014-Oct-24 23:33N 53°35' E 008°32'0 0.0
2014-Oct-24 22:33N 53°35' E 008°32'0 0.0
2014-Oct-24 21:33N 53°35' E 008°32'0 0.0
2014-Oct-24 20:33N 53°35' E 008°32'0 0.0
2014-Oct-24 19:33N 53°35' E 008°32'0 0.0
2014-Oct-24 18:33N 53°35' E 008°32'0 0.2
2014-Oct-24 17:30N 53°35' E 008°31'0 0.0
2014-Oct-24 16:30N 53°35' E 008°31'0 0.0
2014-Oct-24 15:33N 53°35' E 008°31'0 0.0
2014-Oct-24 14:33N 53°35' E 008°31'0 0.0
2014-Oct-24 13:33N 53°35' E 008°31'0 0.0
2014-Oct-24 12:33N 53°35' E 008°31'4 4.4
2014-Oct-24 11:34N 53°38' E 008°26'1615.9
2014-Oct-24 10:33N 53°49' E 008°06'11 5.3
2014-Oct-24 08:33N 53°60' E 008°04'1312.9
2014-Oct-24 07:33N 53°59' E 008°26'1514.6
2014-Oct-24 06:33N 53°51' E 008°46'1413.6
2014-Oct-24 05:33N 53°54' E 009°09'1 0.5
2014-Oct-24 04:33N 53°54' E 009°09'19 6.0
2014-Oct-24 01:23N 54°10' E 009°26'4 4.7
2014-Oct-24 00:26N 54°12' E 009°33'4 4.7
2014-Oct-23 23:29N 54°16' E 009°37'5 5.2
2014-Oct-23 22:33N 54°19' E 009°43'4 4.3
2014-Oct-23 21:33N 54°22' E 009°49'5 5.3
2014-Oct-23 20:33N 54°21' E 009°58'4 4.2
2014-Oct-23 19:33N 54°22' E 010°05'2 2.3
2014-Oct-23 18:33N 54°22' E 010°09'2 2.4
2014-Oct-23 17:33N 54°23' E 010°12'10 9.8
2014-Oct-23 16:33N 54°31' E 010°22'1715.1
2014-Oct-23 15:25N 54°35' E 010°51'1815.0
2014-Oct-23 14:15N 54°33' E 011°21'1216.6
2014-Oct-23 13:33N 54°28' E 011°39'1515.5
2014-Oct-23 12:33N 54°26' E 012°06'5714.0
2014-Oct-23 08:27N 54°46' E 013°39'1516.1
2014-Oct-23 07:33N 54°41' E 014°03'1615.6
2014-Oct-23 06:30N 54°39' E 014°31'1516.0
2014-Oct-23 05:33N 54°43' E 014°56'1615.7
2014-Oct-23 04:33N 54°49' E 015°22'  
2014-Oct-20 22:05N 55°21' E 018°27'1317.0
2014-Oct-20 21:20N 55°18' E 018°06'11617.0
2014-Oct-20 14:31N 54°37' E 014°57'4411.2
2014-Oct-20 10:34N 54°00' E 014°16'8 8.4
2014-Oct-20 09:33N 53°52' E 014°17'9 8.8
2014-Oct-20 08:33N 53°45' E 014°25'1110.6
2014-Oct-20 07:34N 53°36' E 014°35'8 8.3
2014-Oct-20 06:34N 53°28' E 014°36'2 0.1
2014-Oct-19 17:09N 53°26' E 014°35'0 0.0
2014-Oct-19 16:06N 53°26' E 014°35'0 0.0
2014-Oct-19 15:30N 53°26' E 014°35'0 0.0
2014-Oct-19 14:30N 53°26' E 014°35'0 0.0
2014-Oct-19 13:30N 53°26' E 014°35'0 0.0
2014-Oct-19 12:30N 53°26' E 014°35'0 0.0
2014-Oct-19 11:30N 53°26' E 014°35'0 0.0
2014-Oct-19 10:33N 53°26' E 014°35'0 0.0
2014-Oct-19 09:33N 53°26' E 014°35'1 1.1
2014-Oct-19 08:33N 53°27' E 014°36'6 6.2
2014-Oct-19 07:33N 53°33' E 014°37'9 9.2
2014-Oct-19 06:33N 53°41' E 014°30'1110.8
2014-Oct-19 05:33N 53°50' E 014°19'6 6.0
2014-Oct-19 04:33N 53°55' E 014°17'7210.2
2014-Oct-18 21:31N 54°43' E 012°45'1913.0
2014-Oct-18 20:03N 54°33' E 012°18'713.4
2014-Oct-18 19:33N 54°26' E 012°13'1212.3
2014-Oct-18 18:32N 54°24' E 011°52'3712.4
2014-Oct-18 15:31N 54°35' E 010°50'1313.1
2014-Oct-18 14:33N 54°32' E 010°29'1312.6
2014-Oct-18 13:33N 54°24' E 010°12'3 3.4
2014-Oct-18 12:34N 54°22' E 010°08'6 6.1
2014-Oct-18 11:34N 54°21' E 009°58'7 7.0
2014-Oct-18 10:33N 54°21' E 009°46'7 6.7
2014-Oct-18 09:34N 54°16' E 009°38'2 2.4
2014-Oct-18 08:33N 54°14' E 009°36'9 8.2
2014-Oct-18 07:30N 54°09' E 009°23'7 7.9
2014-Oct-18 06:34N 54°03' E 009°18'7 6.4
2014-Oct-18 05:30N 53°57' E 009°14'0 0.1
2014-Oct-18 04:29N 53°57' E 009°14'3 3.7
2014-Oct-18 03:33N 53°54' E 009°09'2 1.6
2014-Oct-18 02:33N 53°53' E 009°07'9 9.2
2014-Oct-18 01:34N 53°50' E 008°52'1110.8
2014-Oct-18 00:33N 53°57' E 008°38'1414.3
2014-Oct-17 23:33N 53°60' E 008°14'1313.6
2014-Oct-17 22:33N 53°54' E 007°53'1313.4
2014-Oct-17 21:33N 53°46' E 008°11'1615.7
2014-Oct-17 20:33N 53°35' E 008°31'0 0.1
2014-Oct-17 19:30N 53°36' E 008°31'0 0.0
2014-Oct-17 18:30N 53°36' E 008°31'0 0.0
2014-Oct-17 17:30N 53°36' E 008°31'0 0.0
2014-Oct-17 16:30N 53°36' E 008°31'0 0.0
2014-Oct-17 15:33N 53°36' E 008°31'0 0.0
2014-Oct-17 14:33N 53°36' E 008°31'0 0.0
2014-Oct-17 13:33N 53°36' E 008°31'0 0.0
2014-Oct-17 12:33N 53°36' E 008°31'1 0.8
2014-Oct-17 11:32N 53°35' E 008°32'0 0.0
2014-Oct-17 10:33N 53°35' E 008°32'0 0.0
2014-Oct-17 09:33N 53°35' E 008°32'0 0.0
2014-Oct-17 08:33N 53°35' E 008°32'0 0.0
2014-Oct-17 07:33N 53°35' E 008°32'0 0.0
2014-Oct-17 06:33N 53°35' E 008°32'0 0.0
2014-Oct-17 05:33N 53°35' E 008°32'0 0.0
2014-Oct-17 04:33N 53°35' E 008°32'0 0.0
2014-Oct-17 03:33N 53°35' E 008°32'0 0.0
2014-Oct-17 02:33N 53°35' E 008°32'0 0.3
2014-Oct-17 01:28N 53°35' E 008°32'0 0.1
2014-Oct-17 00:31N 53°35' E 008°32'0 0.0
2014-Oct-16 23:31N 53°35' E 008°32'0 0.0
2014-Oct-16 22:31N 53°35' E 008°32'0 0.0
2014-Oct-16 21:31N 53°35' E 008°32'0 0.0
2014-Oct-16 20:31N 53°35' E 008°32'0 0.0
2014-Oct-16 19:31N 53°35' E 008°32'0 0.0
2014-Oct-16 18:31N 53°35' E 008°32'3 3.3
2014-Oct-16 17:33N 53°37' E 008°28'1616.4
2014-Oct-16 16:33N 53°48' E 008°07'1010.4
2014-Oct-16 15:33N 53°57' E 007°59'1413.8
2014-Oct-16 14:33N 53°59' E 008°22'1413.8
2014-Oct-16 13:33N 53°53' E 008°42'1615.5
2014-Oct-16 12:34N 53°53' E 009°09'1414.1
2014-Oct-16 11:33N 53°44' E 009°27'1414.3
2014-Oct-16 10:34N 53°34' E 009°44'6 6.1
2014-Oct-16 09:33N 53°32' E 009°54'0 0.0
2014-Oct-16 08:33N 53°32' E 009°54'0 0.0
2014-Oct-16 07:33N 53°32' E 009°54'0 0.0
2014-Oct-16 06:30N 53°32' E 009°54'0 0.0
2014-Oct-16 05:33N 53°32' E 009°54'0 0.3
2014-Oct-16 04:34N 53°32' E 009°54'2 1.7
2014-Oct-16 03:34N 53°32' E 009°57'0 0.0
2014-Oct-16 02:31N 53°32' E 009°57'0 0.0
2014-Oct-16 01:34N 53°32' E 009°57'0 0.0
2014-Oct-16 00:33N 53°32' E 009°57'0 0.0
2014-Oct-15 23:31N 53°32' E 009°57'0 0.0
2014-Oct-15 22:34N 53°32' E 009°57'0 0.0
2014-Oct-15 21:34N 53°32' E 009°57'0 0.0
2014-Oct-15 20:34N 53°32' E 009°57'0 0.0
2014-Oct-15 19:33N 53°32' E 009°57'0 0.0
2014-Oct-15 18:34N 53°32' E 009°57'1 1.4
2014-Oct-15 17:32N 53°32' E 009°55'0 0.0
2014-Oct-15 16:29N 53°32' E 009°55'0 0.0
2014-Oct-15 15:29N 53°32' E 009°55'0 0.0
2014-Oct-15 14:32N 53°32' E 009°55'0 0.0
2014-Oct-15 13:32N 53°32' E 009°55'1 0.8
2014-Oct-15 12:34N 53°33' E 009°53'3 2.9
2014-Oct-15 11:33N 53°30' E 009°56'0 0.0
2014-Oct-15 10:33N 53°30' E 009°56'0 0.0
2014-Oct-15 09:33N 53°30' E 009°56'0 0.0
2014-Oct-15 08:33N 53°30' E 009°56'  

Dump ship's entire track history